createdAt,value
2022-08-01T00:00:04.345Z,2.47
2022-08-01T00:02:30.988Z,2.30
2022-08-01T00:04:58.160Z,2.40
2022-08-01T00:07:24.794Z,2.20
2022-08-01T00:09:51.104Z,1.92
2022-08-01T00:12:17.510Z,2.05
2022-08-01T00:14:43.955Z,2.20
2022-08-01T00:17:10.504Z,2.33
2022-08-01T00:19:36.966Z,2.40
2022-08-01T00:22:03.787Z,1.98
2022-08-01T00:24:30.649Z,2.03
2022-08-01T00:26:57.081Z,1.90
2022-08-01T00:30:01.969Z,2.25
2022-08-01T00:32:09.849Z,2.15
2022-08-01T00:34:36.321Z,1.77
2022-08-01T00:37:03.076Z,1.73
2022-08-01T00:39:29.436Z,1.52
2022-08-01T00:42:07.885Z,2.28
2022-08-01T00:44:35.099Z,1.70
2022-08-01T00:47:02.406Z,2.33
2022-08-01T00:49:29.165Z,1.77
2022-08-01T00:51:56.652Z,2.45
2022-08-01T00:54:24.815Z,1.85
2022-08-01T00:56:51.281Z,1.80
2022-08-01T00:59:19.014Z,2.47
2022-08-01T01:01:47.101Z,1.90
2022-08-01T01:04:17.105Z,1.95
2022-08-01T01:07:02.890Z,1.75
2022-08-01T01:09:53.593Z,2.05
2022-08-01T01:12:25.662Z,2.05
2022-08-01T01:15:02.243Z,1.85
2022-08-01T01:17:50.418Z,2.15
2022-08-01T01:20:19.357Z,1.50
2022-08-01T01:22:57.294Z,1.70
2022-08-01T01:25:59.070Z,1.70
2022-08-01T01:28:50.877Z,1.80
2022-08-01T01:31:21.206Z,1.80
2022-08-01T01:33:49.511Z,1.98
2022-08-01T01:36:19.075Z,2.22
2022-08-01T01:38:47.969Z,1.55
2022-08-01T01:41:18.189Z,2.08
2022-08-01T01:43:46.885Z,1.83
2022-08-01T01:46:18.138Z,2.67
2022-08-01T01:48:47.232Z,2.28
2022-08-01T01:51:14.864Z,2.10
2022-08-01T01:53:42.110Z,2.10
2022-08-01T01:56:11.015Z,2.22
2022-08-01T01:58:39.113Z,1.77
2022-08-01T02:01:14.262Z,1.77
2022-08-01T02:03:43.629Z,1.75
2022-08-01T02:06:12.658Z,1.65
2022-08-01T02:08:42.608Z,1.65
2022-08-01T02:11:08.998Z,1.85
2022-08-01T02:13:37.994Z,2.20
2022-08-01T02:16:06.335Z,2.03
2022-08-01T02:18:33.902Z,2.00
2022-08-01T02:21:04.786Z,1.67
2022-08-01T02:23:34.769Z,1.67
2022-08-01T02:26:11.177Z,1.73
2022-08-01T02:28:51.522Z,1.38
2022-08-01T02:31:21.423Z,1.27
2022-08-01T02:33:57.981Z,1.63
2022-08-01T02:36:28.978Z,1.70
2022-08-01T02:39:01.516Z,1.58
2022-08-01T02:41:30.135Z,1.70
2022-08-01T02:44:01.788Z,1.17
2022-08-01T02:46:44.296Z,1.50
2022-08-01T02:49:12.728Z,1.20
2022-08-01T02:51:41.941Z,1.40
2022-08-01T02:54:10.881Z,1.38
2022-08-01T02:56:39.022Z,1.45
2022-08-01T02:59:10.023Z,1.08
2022-08-01T03:01:36.987Z,1.23
2022-08-01T03:04:06.099Z,1.23
2022-08-01T03:06:34.844Z,1.42
2022-08-01T03:09:03.379Z,1.10
2022-08-01T03:11:32.268Z,1.20
2022-08-01T03:14:04.743Z,1.40
2022-08-01T03:16:33.032Z,1.65
2022-08-01T03:19:01.707Z,1.33
2022-08-01T03:21:31.295Z,1.67
2022-08-01T03:24:00.378Z,1.63
2022-08-01T03:26:33.563Z,1.70
2022-08-01T03:29:04.706Z,1.40
2022-08-01T03:31:31.798Z,1.75
2022-08-01T03:33:59.901Z,1.65
2022-08-01T03:36:32.648Z,1.45
2022-08-01T03:39:02.219Z,1.70
2022-08-01T03:41:34.880Z,1.70
2022-08-01T03:44:06.007Z,1.70
2022-08-01T03:46:40.441Z,1.75
2022-08-01T03:49:15.610Z,1.58
2022-08-01T03:51:42.186Z,1.73
2022-08-01T03:54:11.314Z,1.58
2022-08-01T03:56:39.279Z,1.80
2022-08-01T03:59:06.092Z,2.30
2022-08-01T04:01:33.654Z,1.40
2022-08-01T04:04:00.805Z,2.17
2022-08-01T04:06:27.545Z,1.58
2022-08-01T04:08:55.216Z,2.03
2022-08-01T04:11:23.485Z,1.50
2022-08-01T04:13:50.125Z,1.63
2022-08-01T04:16:17.069Z,1.80
2022-08-01T04:18:43.709Z,2.00
2022-08-01T04:21:10.118Z,1.88
2022-08-01T04:23:36.473Z,1.75
2022-08-01T04:26:04.349Z,1.70
2022-08-01T04:28:32.858Z,1.58
2022-08-01T04:31:02.222Z,1.70
2022-08-01T04:33:31.836Z,2.03
2022-08-01T04:36:01.888Z,1.17
2022-08-01T04:38:32.950Z,1.63
2022-08-01T04:41:09.108Z,1.80
2022-08-01T04:43:37.545Z,1.83
2022-08-01T04:46:04.590Z,1.90
2022-08-01T04:48:33.078Z,1.48
2022-08-01T04:50:59.700Z,1.77
2022-08-01T04:53:26.083Z,1.73
2022-08-01T04:55:52.503Z,1.63
2022-08-01T04:58:19.255Z,1.90
2022-08-01T05:00:47.154Z,1.73
2022-08-01T05:03:13.524Z,2.40
2022-08-01T05:05:40.303Z,1.92
2022-08-01T05:08:06.815Z,2.00
2022-08-01T05:10:33.141Z,2.22
2022-08-01T05:12:59.545Z,2.00
2022-08-01T05:15:26.260Z,1.90
2022-08-01T05:17:52.648Z,2.10
2022-08-01T05:20:19.169Z,2.45
2022-08-01T05:22:45.698Z,2.10
2022-08-01T05:25:12.200Z,2.25
2022-08-01T05:27:40.911Z,2.00
2022-08-01T05:30:09.039Z,2.40
2022-08-01T05:32:35.618Z,1.92
2022-08-01T05:35:02.106Z,1.80
2022-08-01T05:37:28.515Z,2.22
2022-08-01T05:39:54.914Z,2.22
2022-08-01T05:42:21.314Z,2.03
2022-08-01T05:44:48.010Z,2.00
2022-08-01T05:47:15.156Z,2.20
2022-08-01T05:49:41.618Z,2.42
2022-08-01T05:52:08.454Z,2.63
2022-08-01T05:54:35.055Z,2.85
2022-08-01T05:57:01.374Z,2.25
2022-08-01T05:59:28.574Z,1.92
2022-08-01T06:01:55.036Z,2.25
2022-08-01T06:04:21.668Z,2.33
2022-08-01T06:06:48.481Z,2.78
2022-08-01T06:09:14.818Z,2.63
2022-08-01T06:11:41.371Z,2.38
2022-08-01T06:14:08.286Z,2.78
2022-08-01T06:16:34.646Z,2.63
2022-08-01T06:19:01.680Z,2.67
2022-08-01T06:21:28.336Z,2.65
2022-08-01T06:23:54.667Z,2.92
2022-08-01T06:26:21.702Z,2.78
2022-08-01T06:28:48.014Z,3.47
2022-08-01T06:31:14.870Z,2.45
2022-08-01T06:33:41.508Z,2.35
2022-08-01T06:36:08.558Z,2.42
2022-08-01T06:38:35.198Z,3.10
2022-08-01T06:41:01.946Z,2.88
2022-08-01T06:43:28.319Z,2.83
2022-08-01T06:45:54.788Z,2.60
2022-08-01T06:48:21.191Z,2.88
2022-08-01T06:50:47.875Z,2.05
2022-08-01T06:53:14.298Z,2.15
2022-08-01T06:55:40.643Z,2.05
2022-08-01T06:58:06.972Z,2.70
2022-08-01T07:00:33.495Z,1.05
2022-08-01T07:02:59.916Z,1.48
2022-08-01T07:05:26.969Z,1.15
2022-08-01T07:07:53.425Z,1.30
2022-08-01T07:10:19.948Z,0.93
2022-08-01T07:12:46.296Z,1.02
2022-08-01T07:15:12.900Z,1.30
2022-08-01T07:17:41.901Z,0.95
2022-08-01T07:20:13.757Z,1.02
2022-08-01T07:22:42.755Z,1.38
2022-08-01T07:25:10.058Z,0.95
2022-08-01T07:27:37.211Z,0.85
2022-08-01T07:30:05.024Z,0.70
2022-08-01T07:32:31.588Z,0.85
2022-08-01T07:34:57.971Z,0.63
2022-08-01T07:37:45.483Z,1.00
2022-08-01T07:40:13.293Z,0.70
2022-08-01T07:42:40.004Z,0.90
2022-08-01T07:45:06.761Z,0.70
2022-08-01T07:47:33.098Z,0.68
2022-08-01T07:50:05.058Z,0.82
2022-08-01T07:52:31.798Z,0.70
2022-08-01T07:54:58.828Z,0.57
2022-08-01T07:57:25.909Z,0.73
2022-08-01T07:59:52.632Z,1.02
2022-08-01T08:02:19.182Z,0.65
2022-08-01T08:04:48.917Z,0.68
2022-08-01T08:07:16.070Z,0.85
2022-08-01T08:09:42.641Z,0.73
2022-08-01T08:12:09.359Z,0.80
2022-08-01T08:14:36.618Z,0.82
2022-08-01T08:17:02.955Z,0.82
2022-08-01T08:19:38.482Z,0.93
2022-08-01T08:22:09.888Z,0.75
2022-08-01T08:24:46.179Z,1.00
2022-08-01T08:27:13.173Z,0.60
2022-08-01T08:29:39.539Z,1.00
2022-08-01T08:32:06.618Z,0.95
2022-08-01T08:34:33.230Z,1.30
2022-08-01T08:37:00.557Z,0.90
2022-08-01T08:39:27.567Z,0.80
2022-08-01T08:41:54.348Z,0.80
2022-08-01T08:44:21.004Z,0.77
2022-08-01T08:46:50.308Z,0.88
2022-08-01T08:49:25.464Z,0.88
2022-08-01T08:51:53.436Z,0.77
2022-08-01T08:54:28.881Z,0.70
2022-08-01T08:57:00.295Z,0.57
2022-08-01T08:59:27.860Z,0.90
2022-08-01T09:01:54.387Z,0.60
2022-08-01T09:04:25.990Z,0.50
2022-08-01T09:06:54.999Z,0.60
2022-08-01T09:09:22.157Z,0.63
2022-08-01T09:12:05.147Z,0.70
2022-08-01T09:14:31.900Z,0.77
2022-08-01T09:17:08.384Z,0.52
2022-08-01T09:19:42.172Z,0.63
2022-08-01T09:22:17.851Z,0.60
2022-08-01T09:24:58.780Z,0.82
2022-08-01T09:27:25.435Z,0.73
2022-08-01T09:30:01.244Z,0.47
2022-08-01T09:32:35.132Z,0.68
2022-08-01T09:35:30.161Z,0.68
2022-08-01T09:38:13.020Z,0.50
2022-08-01T09:40:53.918Z,0.60
2022-08-01T09:43:22.270Z,0.40
2022-08-01T09:45:50.700Z,0.40
2022-08-01T09:48:22.832Z,0.77
2022-08-01T09:53:29.658Z,0.47
2022-08-01T09:56:10.189Z,0.50
2022-08-01T09:59:02.466Z,0.40
2022-08-01T10:01:50.672Z,0.40
2022-08-01T10:04:22.398Z,0.50
2022-08-01T10:06:51.234Z,0.60
2022-08-01T10:09:40.374Z,0.30
2022-08-01T10:12:08.951Z,0.73
2022-08-01T10:14:39.607Z,4.90
2022-08-01T10:17:18.159Z,0.40
2022-08-01T10:19:45.689Z,0.40
2022-08-01T10:22:14.621Z,0.50
2022-08-01T10:24:45.084Z,0.52
2022-08-01T10:27:12.737Z,0.50
2022-08-01T10:30:05.922Z,0.43
2022-08-01T10:32:36.892Z,0.40
2022-08-01T10:35:15.234Z,0.43
2022-08-01T10:37:52.085Z,0.40
2022-08-01T10:40:29.846Z,0.50
2022-08-01T10:42:57.210Z,0.50
2022-08-01T10:45:24.857Z,0.35
2022-08-01T10:48:01.235Z,0.52
2022-08-01T10:50:33.028Z,0.43
2022-08-01T10:53:30.818Z,0.70
2022-08-01T10:56:01.424Z,0.43
2022-08-01T10:58:35.579Z,0.60
2022-08-01T11:01:31.312Z,0.60
2022-08-01T11:04:01.247Z,0.50
2022-08-01T11:06:34.324Z,0.50
2022-08-01T11:09:23.722Z,0.73
2022-08-01T11:12:13.468Z,1.05
2022-08-01T11:14:59.749Z,0.68
2022-08-01T11:17:42.494Z,0.85
2022-08-01T11:20:15.578Z,0.60
2022-08-01T11:23:02.090Z,0.60
2022-08-01T11:26:05.469Z,0.90
2022-08-01T11:28:33.199Z,0.57
2022-08-01T11:31:07.845Z,0.60
2022-08-01T11:33:40.570Z,0.40
2022-08-01T11:36:14.186Z,0.63
2022-08-01T11:38:44.603Z,0.80
2022-08-01T11:41:13.371Z,0.70
2022-08-01T11:44:00.813Z,0.75
2022-08-01T11:46:48.048Z,0.50
2022-08-01T11:49:44.477Z,0.60
2022-08-01T11:52:32.094Z,0.70
2022-08-01T11:55:10.083Z,0.60
2022-08-01T11:57:36.819Z,0.50
2022-08-01T12:00:17.426Z,0.93
2022-08-01T12:02:46.282Z,0.80
2022-08-01T12:05:17.883Z,0.68
2022-08-01T12:07:45.616Z,0.47
2022-08-01T12:10:15.014Z,0.40
2022-08-01T12:12:52.228Z,0.70
2022-08-01T12:15:20.803Z,0.70
2022-08-01T12:17:58.484Z,0.80
2022-08-01T12:20:30.207Z,0.50
2022-08-01T12:22:59.485Z,0.60
2022-08-01T12:25:25.826Z,0.60
2022-08-01T12:27:56.488Z,0.55
2022-08-01T12:30:23.854Z,0.60
2022-08-01T12:32:51.083Z,0.70
2022-08-01T12:35:20.612Z,0.60
2022-08-01T12:37:49.805Z,0.95
2022-08-01T12:40:19.268Z,0.70
2022-08-01T12:42:50.820Z,0.45
2022-08-01T12:45:20.319Z,0.60
2022-08-01T12:47:48.243Z,0.65
2022-08-01T12:50:23.112Z,0.70
2022-08-01T12:52:51.072Z,1.05
2022-08-01T12:55:34.401Z,0.60
2022-08-01T12:58:13.929Z,0.40
2022-08-01T13:00:45.078Z,0.65
2022-08-01T13:03:20.890Z,0.50
2022-08-01T13:05:57.476Z,0.50
2022-08-01T13:08:35.085Z,0.40
2022-08-01T13:11:04.129Z,0.60
2022-08-01T13:13:40.495Z,0.65
2022-08-01T13:16:08.591Z,0.60
2022-08-01T13:18:39.134Z,0.70
2022-08-01T13:21:19.344Z,0.60
2022-08-01T13:24:11.630Z,0.68
2022-08-01T13:26:53.833Z,0.70
2022-08-01T13:29:23.322Z,0.63
2022-08-01T13:31:50.350Z,0.75
2022-08-01T13:34:17.365Z,0.90
2022-08-01T13:36:49.137Z,0.63
2022-08-01T13:39:16.767Z,0.60
2022-08-01T13:41:43.499Z,0.80
2022-08-01T13:44:10.426Z,0.85
2022-08-01T13:46:38.396Z,0.85
2022-08-01T13:49:15.899Z,1.00
2022-08-01T13:51:43.168Z,0.88
2022-08-01T13:54:09.648Z,1.08
2022-08-01T13:56:36.059Z,1.00
2022-08-01T13:59:02.576Z,0.70
2022-08-01T14:01:33.693Z,1.20
2022-08-01T14:04:01.077Z,0.88
2022-08-01T14:06:27.593Z,0.82
2022-08-01T14:08:54.308Z,0.93
2022-08-01T14:11:21.450Z,0.88
2022-08-01T14:13:48.346Z,0.95
2022-08-01T14:16:15.055Z,0.90
2022-08-01T14:18:44.241Z,0.95
2022-08-01T14:21:11.159Z,0.60
2022-08-01T14:23:37.800Z,0.80
2022-08-01T14:26:09.827Z,0.90
2022-08-01T14:28:39.375Z,0.60
2022-08-01T14:31:06.173Z,0.77
2022-08-01T14:33:34.271Z,0.68
2022-08-01T14:36:05.994Z,0.70
2022-08-01T14:38:47.733Z,0.63
2022-08-01T14:41:15.558Z,0.50
2022-08-01T14:43:42.076Z,1.05
2022-08-01T14:46:08.405Z,0.50
2022-08-01T14:48:34.949Z,0.65
2022-08-01T14:51:01.372Z,0.52
2022-08-01T14:53:27.692Z,0.55
2022-08-01T14:55:54.087Z,0.68
2022-08-01T14:58:20.617Z,0.50
2022-08-01T15:00:47.439Z,0.68
2022-08-01T15:03:13.845Z,0.30
2022-08-01T15:05:41.315Z,0.32
2022-08-01T15:08:07.845Z,0.43
2022-08-01T15:10:34.280Z,0.47
2022-08-01T15:13:01.008Z,0.40
2022-08-01T15:15:28.578Z,0.40
2022-08-01T15:17:55.112Z,0.20
2022-08-01T15:20:22.058Z,0.60
2022-08-01T15:22:48.450Z,0.40
2022-08-01T15:25:15.336Z,0.30
2022-08-01T15:27:41.767Z,0.28
2022-08-01T15:30:08.539Z,0.40
2022-08-01T15:32:35.149Z,0.40
2022-08-01T15:35:01.888Z,0.25
2022-08-01T15:37:28.488Z,0.30
2022-08-01T15:39:56.716Z,0.30
2022-08-01T15:42:25.389Z,0.30
2022-08-01T15:44:52.125Z,0.22
2022-08-01T15:47:18.712Z,0.40
2022-08-01T15:49:45.287Z,0.30
2022-08-01T15:52:21.986Z,0.30
2022-08-01T15:54:49.911Z,0.40
2022-08-01T15:57:16.868Z,0.45
2022-08-01T15:59:43.434Z,0.40
2022-08-01T16:02:10.785Z,0.68
2022-08-01T16:04:38.835Z,0.60
2022-08-01T16:07:05.685Z,0.77
2022-08-01T16:09:32.139Z,0.70
2022-08-01T16:11:58.556Z,0.70
2022-08-01T16:14:24.903Z,0.70
2022-08-01T16:16:51.848Z,0.80
2022-08-01T16:19:19.633Z,0.73
2022-08-01T16:21:47.905Z,0.60
2022-08-01T16:24:14.519Z,0.70
2022-08-01T16:26:41.374Z,0.63
2022-08-01T16:29:08.117Z,0.60
2022-08-01T16:31:42.638Z,0.70
2022-08-01T16:34:19.905Z,0.50
2022-08-01T16:36:50.029Z,0.50
2022-08-01T16:39:21.008Z,0.80
2022-08-01T16:41:49.340Z,0.50
2022-08-01T16:44:15.775Z,0.70
2022-08-01T16:46:55.740Z,0.70
2022-08-01T16:49:23.469Z,0.65
2022-08-01T16:51:50.144Z,0.68
2022-08-01T16:54:25.348Z,0.50
2022-08-01T16:56:53.265Z,0.68
2022-08-01T16:59:19.861Z,0.45
2022-08-01T17:01:58.983Z,0.60
2022-08-01T17:04:28.669Z,0.50
2022-08-01T17:06:55.090Z,0.60
2022-08-01T17:09:21.503Z,0.50
2022-08-01T17:11:48.252Z,0.50
2022-08-01T17:14:15.443Z,0.65
2022-08-01T17:16:42.072Z,0.70
2022-08-01T17:19:08.513Z,0.45
2022-08-01T17:21:36.353Z,0.60
2022-08-01T17:24:05.031Z,0.50
2022-08-01T17:26:31.361Z,0.40
2022-08-01T17:28:58.102Z,0.50
2022-08-01T17:31:24.837Z,0.40
2022-08-01T17:33:54.811Z,0.28
2022-08-01T17:36:21.876Z,0.57
2022-08-01T17:38:48.607Z,0.50
2022-08-01T17:41:15.247Z,0.30
2022-08-01T17:43:41.907Z,0.35
2022-08-01T17:46:08.425Z,0.50
2022-08-01T17:48:34.934Z,0.50
2022-08-01T17:51:01.596Z,0.52
2022-08-01T17:53:28.151Z,0.50
2022-08-01T17:55:57.311Z,0.50
2022-08-01T17:58:48.894Z,0.50
2022-08-01T18:01:13.065Z,0.40
2022-08-01T18:03:41.487Z,0.60
2022-08-01T18:06:08.573Z,0.40
2022-08-01T18:08:35.415Z,0.40
2022-08-01T18:11:02.008Z,0.50
2022-08-01T18:13:29.360Z,0.40
2022-08-01T18:15:58.053Z,0.63
2022-08-01T18:18:33.478Z,0.50
2022-08-01T18:21:03.395Z,0.40
2022-08-01T18:23:30.005Z,0.40
2022-08-01T18:25:56.420Z,0.52
2022-08-01T18:28:31.590Z,0.40
2022-08-01T18:30:59.401Z,0.57
2022-08-01T18:33:26.110Z,0.50
2022-08-01T18:35:53.698Z,0.35
2022-08-01T18:38:20.755Z,0.50
2022-08-01T18:40:50.941Z,0.40
2022-08-01T18:43:17.535Z,0.50
2022-08-01T18:45:43.867Z,0.35
2022-08-01T18:48:11.540Z,0.65
2022-08-01T18:50:38.135Z,0.47
2022-08-01T18:53:04.802Z,0.60
2022-08-01T18:55:31.287Z,0.50
2022-08-01T18:57:57.685Z,0.50
2022-08-01T19:00:24.013Z,0.30
2022-08-01T19:02:50.448Z,0.50
2022-08-01T19:05:16.882Z,0.60
2022-08-01T19:08:05.402Z,0.40
2022-08-01T19:10:30.068Z,0.65
2022-08-01T19:12:56.405Z,0.55
2022-08-01T19:15:22.728Z,0.52
2022-08-01T19:17:49.346Z,0.52
2022-08-01T19:20:15.702Z,0.60
2022-08-01T19:22:42.030Z,0.45
2022-08-01T19:25:09.035Z,0.60
2022-08-01T19:27:35.681Z,0.50
2022-08-01T19:30:02.421Z,0.40
2022-08-01T19:32:30.258Z,0.60
2022-08-01T19:35:08.517Z,0.52
2022-08-01T19:37:35.236Z,0.50
2022-08-01T19:40:01.839Z,0.43
2022-08-01T19:42:29.345Z,0.57
2022-08-01T19:44:56.072Z,0.77
2022-08-01T19:47:22.970Z,0.80
2022-08-01T19:49:49.548Z,0.50
2022-08-01T19:52:19.873Z,0.60
2022-08-01T19:54:50.506Z,0.60
2022-08-01T19:57:16.884Z,0.90
2022-08-01T19:59:46.386Z,0.55
2022-08-01T20:02:17.794Z,0.80
2022-08-01T20:04:44.273Z,0.65
2022-08-01T20:07:11.999Z,0.60
2022-08-01T20:09:40.416Z,0.50
2022-08-01T20:12:07.050Z,0.55
2022-08-01T20:14:33.531Z,0.57
2022-08-01T20:17:00.896Z,0.60
2022-08-01T20:19:27.659Z,0.60
2022-08-01T20:22:03.500Z,0.70
2022-08-01T20:24:36.382Z,0.60
2022-08-01T20:27:07.312Z,0.68
2022-08-01T20:29:34.833Z,0.50
2022-08-01T20:32:02.332Z,1.20
2022-08-01T20:34:29.312Z,0.90
2022-08-01T20:36:57.416Z,0.80
2022-08-01T20:39:24.678Z,0.70
2022-08-01T20:41:59.477Z,0.60
2022-08-01T20:44:27.443Z,0.63
2022-08-01T20:46:54.311Z,1.00
2022-08-01T20:49:22.801Z,0.70
2022-08-01T20:51:49.160Z,0.65
2022-08-01T20:54:15.507Z,0.75
2022-08-01T20:56:51.406Z,0.60
2022-08-01T20:59:56.800Z,0.70
2022-08-01T21:02:48.183Z,0.80
2022-08-01T21:05:24.264Z,0.90
2022-08-01T21:07:53.784Z,1.10
2022-08-01T21:10:21.993Z,0.95
2022-08-01T21:13:00.347Z,0.85
2022-08-01T21:15:29.620Z,0.80
2022-08-01T21:18:02.302Z,0.75
2022-08-01T21:20:32.207Z,0.95
2022-08-01T21:23:26.826Z,0.52
2022-08-01T21:25:54.183Z,0.55
2022-08-01T21:28:21.378Z,0.70
2022-08-01T21:30:55.586Z,1.13
2022-08-01T21:33:25.694Z,1.10
2022-08-01T21:36:04.171Z,0.88
2022-08-01T21:38:33.220Z,0.80
2022-08-01T21:41:03.230Z,0.80
2022-08-01T21:43:32.400Z,0.80
2022-08-01T21:46:00.571Z,0.73
2022-08-01T21:48:30.825Z,0.82
2022-08-01T21:51:01.109Z,0.73
2022-08-01T21:53:53.626Z,0.77
2022-08-01T21:56:41.408Z,0.93
2022-08-01T21:59:41.756Z,0.70
2022-08-01T22:02:16.108Z,1.02
2022-08-01T22:04:50.532Z,0.73
2022-08-01T22:07:19.668Z,0.80
2022-08-01T22:09:49.415Z,1.02
2022-08-01T22:12:18.502Z,1.20
2022-08-01T22:14:48.186Z,0.77
2022-08-01T22:17:19.944Z,1.00
2022-08-01T22:19:49.612Z,1.15
2022-08-01T22:22:44.197Z,1.17
2022-08-01T22:25:08.893Z,1.00
2022-08-01T22:28:03.182Z,0.82
2022-08-01T22:30:29.216Z,1.10
2022-08-01T22:33:15.404Z,0.77
2022-08-01T22:35:48.922Z,0.73
2022-08-01T22:38:18.508Z,0.80
2022-08-01T22:40:52.881Z,1.00
2022-08-01T22:43:34.290Z,1.10
2022-08-01T22:46:18.749Z,0.90
2022-08-01T22:48:51.748Z,0.95
2022-08-01T22:51:38.127Z,0.70
2022-08-01T22:54:11.491Z,0.80
2022-08-01T22:56:46.441Z,1.05
2022-08-01T22:59:19.239Z,0.75
2022-08-01T23:01:51.180Z,0.70
2022-08-01T23:04:33.420Z,0.80
2022-08-01T23:07:04.542Z,0.88
2022-08-01T23:09:52.532Z,0.90
2022-08-01T23:12:21.414Z,0.80
2022-08-01T23:14:48.114Z,0.47
2022-08-01T23:17:27.361Z,0.93
2022-08-01T23:19:58.241Z,0.80
2022-08-01T23:22:28.625Z,0.80
2022-08-01T23:25:05.397Z,1.00
2022-08-01T23:27:55.979Z,1.10
2022-08-01T23:30:25.515Z,0.70
2022-08-01T23:32:51.970Z,0.80
2022-08-01T23:35:18.316Z,0.98
2022-08-01T23:37:44.891Z,1.10
2022-08-01T23:40:12.103Z,1.02
2022-08-01T23:42:38.470Z,0.85
2022-08-01T23:45:05.423Z,1.10
2022-08-01T23:47:31.857Z,0.90
2022-08-01T23:49:58.190Z,0.90
2022-08-01T23:52:24.621Z,0.85
2022-08-01T23:54:56.516Z,1.23
2022-08-01T23:57:23.524Z,1.30
2022-08-01T23:59:52.928Z,0.98
